logo tempoitalia

Diretta Meteo Sandberg, Stati Uniti (USA)domenica 30 agosto ore 22:51

Mappa
Sereno 19 °C Sereno 24 Ore: T.min 18 T.max 28
Ponente Sud-Ovest Km/h 9.3 Punto di rugiada: 4 °C Umidità: 37% Visibilità: 10 Km
Il sole sorge alle: 06:26 Il sole tramonta alle: 19:24
30 Agosto 2026 22:51 tempo osservato: Sereno Sereno 19 37 1018 vento: Nord SO 9.3
30 Agosto 2026 21:51 tempo osservato: Sereno Sereno 19 32 1018 vento: Nord S 7.4
30 Agosto 2026 20:51 tempo osservato: Sereno Sereno 21 21 1018 vento: Nord S 9.3
30 Agosto 2026 19:51 tempo osservato: Sereno Sereno 22 18 1017 vento: Nord S 11.1
30 Agosto 2026 18:51 tempo osservato: Sereno Sereno 23 21 1017 vento: Nord S 18.5
30 Agosto 2026 17:51 tempo osservato: Sereno Sereno 25 22 1017 vento: Nord S/SE 24
30 Agosto 2026 16:51 tempo osservato: Sereno Sereno 27 21 1017 vento: Nord S/SE 22.2
30 Agosto 2026 15:51 tempo osservato: Sereno Sereno 27 24 1018 vento: Nord S/SE 25.9
30 Agosto 2026 14:51 tempo osservato: Sereno Sereno 27 30 1018 vento: Nord S/SE 25.9
30 Agosto 2026 13:51 tempo osservato: Sereno Sereno 28 30 1018 vento: Nord S 25.9
30 Agosto 2026 12:51 tempo osservato: Sereno Sereno 27 32 1019 vento: Nord S/SE 25.9
30 Agosto 2026 11:51 tempo osservato: Sereno Sereno 27 34 1019 vento: Nord S/SE 20.3
30 Agosto 2026 10:51 tempo osservato: Sereno Sereno 26 34 1019 vento: Nord S 25.9
30 Agosto 2026 09:51 tempo osservato: Sereno Sereno 24 35 1019 vento: Nord S/SO 16.7
30 Agosto 2026 08:51 tempo osservato: Sereno Sereno 22 40 1019 vento: Nord S/SO 11.1
30 Agosto 2026 07:51 tempo osservato: Sereno Sereno 21 43 1019 vento: Nord O 7.4
30 Agosto 2026 06:51 tempo osservato: Sereno Sereno 20 45 1019 vento: Nord O/NO 13
30 Agosto 2026 05:51 tempo osservato: Sereno Sereno 18 55 1018 vento: Nord NO 18.5
30 Agosto 2026 04:51 tempo osservato: Sereno Sereno 18 51 1018 vento: Nord NO 16.7
30 Agosto 2026 03:51 tempo osservato: Sereno Sereno 19 48 1018 vento: Nord N/NO 16.7
30 Agosto 2026 02:51 tempo osservato: Sereno Sereno 18 55 1018 vento: Nord N/NO 25.9
30 Agosto 2026 01:51 tempo osservato: Sereno Sereno 20 45 1018 vento: Nord NO 25.9
30 Agosto 2026 00:51 tempo osservato: Sereno Sereno 20 45 1019 vento: Nord NO 20.3
29 Agosto 2026 23:51 tempo osservato: Sereno Sereno 21 43 1019 vento: Nord NO 25.9